createdAt,value
2022-09-05T00:00:19.455Z,23.60
2022-09-05T00:03:03.811Z,23.60
2022-09-05T00:06:03.174Z,23.60
2022-09-05T00:08:53.441Z,23.50
2022-09-05T00:11:40.457Z,23.50
2022-09-05T00:15:14.937Z,23.50
2022-09-05T00:19:32.551Z,23.40
2022-09-05T00:24:20.227Z,23.40
2022-09-05T00:24:29.813Z,23.40
2022-09-05T00:26:33.036Z,23.40
2022-09-05T00:29:20.369Z,23.40
2022-09-05T00:32:15.104Z,23.40
2022-09-05T00:35:19.131Z,23.30
2022-09-05T00:37:51.271Z,23.30
2022-09-05T00:40:27.224Z,23.20
2022-09-05T00:42:59.652Z,23.20
2022-09-05T00:45:34.864Z,23.20
2022-09-05T00:48:17.731Z,23.10
2022-09-05T00:50:59.278Z,23.10
2022-09-05T00:53:38.752Z,23.10
2022-09-05T00:56:21.840Z,23.10
2022-09-05T00:59:05.016Z,23.10
2022-09-05T01:01:43.026Z,23.10
2022-09-05T01:04:33.669Z,23.00
2022-09-05T01:07:23.912Z,23.00
2022-09-05T01:10:05.399Z,22.90
2022-09-05T01:13:03.046Z,22.90
2022-09-05T01:15:37.639Z,22.90
2022-09-05T01:18:23.096Z,22.90
2022-09-05T01:21:05.892Z,22.90
2022-09-05T01:24:02.005Z,22.90
2022-09-05T01:26:58.585Z,22.90
2022-09-05T01:29:35.884Z,22.90
2022-09-05T01:32:18.272Z,22.90
2022-09-05T01:35:02.601Z,22.90
2022-09-05T01:37:38.540Z,22.90
2022-09-05T01:40:20.689Z,22.90
2022-09-05T01:43:05.636Z,22.90
2022-09-05T01:45:52.853Z,22.90
2022-09-05T01:48:33.224Z,22.90
2022-09-05T01:51:29.038Z,22.80
2022-09-05T01:54:24.105Z,22.80
2022-09-05T01:57:08.151Z,22.70
2022-09-05T01:59:46.820Z,22.70
2022-09-05T02:02:27.826Z,22.70
2022-09-05T02:05:48.553Z,22.60
2022-09-05T02:08:46.909Z,22.70
2022-09-05T02:11:16.365Z,22.60
2022-09-05T02:14:09.755Z,22.70
2022-09-05T02:16:44.676Z,22.70
2022-09-05T02:19:20.644Z,22.70
2022-09-05T02:21:58.849Z,22.70
2022-09-05T02:24:35.402Z,22.70
2022-09-05T02:27:48.955Z,22.60
2022-09-05T02:30:16.611Z,22.60
2022-09-05T02:32:54.604Z,22.60
2022-09-05T02:35:31.259Z,22.60
2022-09-05T02:40:53.509Z,22.60
2022-09-05T02:45:08.327Z,22.60
2022-09-05T02:45:09.109Z,22.60
2022-09-05T02:46:51.179Z,22.50
2022-09-05T02:52:07.370Z,22.50
2022-09-05T02:57:28.265Z,22.50
2022-09-05T02:57:32.899Z,22.50
2022-09-05T02:58:53.277Z,22.50
2022-09-05T03:01:32.550Z,22.50
2022-09-05T03:04:22.016Z,22.40
2022-09-05T03:07:02.562Z,22.40
2022-09-05T03:09:44.173Z,22.40
2022-09-05T03:12:55.731Z,22.50
2022-09-05T03:16:02.579Z,22.50
2022-09-05T03:19:22.914Z,22.50
2022-09-05T03:22:37.075Z,22.50
2022-09-05T03:25:41.479Z,22.50
2022-09-05T03:28:52.045Z,22.50
2022-09-05T03:31:35.102Z,22.50
2022-09-05T03:34:47.947Z,22.40
2022-09-05T03:37:51.957Z,22.40
2022-09-05T03:40:45.235Z,22.40
2022-09-05T03:43:50.043Z,22.50
2022-09-05T03:46:54.225Z,22.50
2022-09-05T03:52:04.496Z,22.60
2022-09-05T03:57:11.160Z,22.60
2022-09-05T03:57:24.719Z,22.60
2022-09-05T03:59:09.773Z,22.50
2022-09-05T04:05:10.938Z,22.50
2022-09-05T04:08:17.423Z,22.50
2022-09-05T04:08:24.043Z,22.50
2022-09-05T04:10:27.720Z,22.40
2022-09-05T04:13:00.648Z,22.40
2022-09-05T04:15:36.906Z,22.40
2022-09-05T04:18:13.435Z,22.40
2022-09-05T04:20:47.849Z,22.40
2022-09-05T04:23:29.743Z,22.40
2022-09-05T04:26:11.952Z,22.40
2022-09-05T04:28:59.446Z,22.40
2022-09-05T04:31:38.442Z,22.40
2022-09-05T04:34:32.078Z,22.40
2022-09-05T04:37:03.409Z,22.30
2022-09-05T04:39:33.327Z,22.30
2022-09-05T04:42:15.396Z,22.20
2022-09-05T04:44:48.917Z,22.10
2022-09-05T04:47:23.310Z,22.10
2022-09-05T04:49:56.721Z,22.10
2022-09-05T04:52:51.800Z,22.10
2022-09-05T04:55:24.825Z,22.10
2022-09-05T04:57:58.884Z,22.00
2022-09-05T05:06:05.268Z,22.00
2022-09-05T05:06:12.390Z,21.90
2022-09-05T05:06:43.803Z,21.90
2022-09-05T05:09:18.880Z,22.00
2022-09-05T05:17:58.148Z,22.00
2022-09-05T05:18:09.264Z,22.00
2022-09-05T05:18:11.818Z,22.00
2022-09-05T05:20:42.643Z,22.10
2022-09-05T05:23:15.920Z,22.10
2022-09-05T05:25:49.477Z,22.20
2022-09-05T05:28:27.033Z,22.20
2022-09-05T05:31:01.878Z,22.30
2022-09-05T05:33:34.826Z,22.40
2022-09-05T05:36:09.339Z,22.40
2022-09-05T05:38:45.133Z,22.50
2022-09-05T05:41:21.587Z,22.60
2022-09-05T05:43:51.847Z,22.70
2022-09-05T05:46:31.715Z,22.70
2022-09-05T05:49:23.439Z,22.90
2022-09-05T05:52:13.792Z,23.00
2022-09-05T05:54:50.652Z,23.20
2022-09-05T05:57:41.109Z,23.30
2022-09-05T06:00:27.481Z,23.40
2022-09-05T06:03:39.775Z,23.40
2022-09-05T06:06:21.800Z,23.40
2022-09-05T06:14:49.679Z,23.40
2022-09-05T06:15:01.922Z,23.40
2022-09-05T06:16:05.814Z,23.40
2022-09-05T06:19:11.676Z,23.60
2022-09-05T06:22:14.943Z,23.70
2022-09-05T06:25:16.739Z,23.80
2022-09-05T06:28:19.030Z,23.90
2022-09-05T06:30:59.285Z,24.00
2022-09-05T06:33:56.860Z,24.10
2022-09-05T06:36:39.324Z,24.10
2022-09-05T06:39:14.941Z,24.20
2022-09-05T06:42:03.155Z,24.20
2022-09-05T06:44:55.655Z,24.20
2022-09-05T06:47:33.694Z,24.30
2022-09-05T06:50:24.551Z,24.30
2022-09-05T06:53:21.163Z,24.30
2022-09-05T06:56:06.722Z,24.40
2022-09-05T06:59:08.988Z,24.50
2022-09-05T07:02:00.520Z,24.50
2022-09-05T07:05:24.165Z,24.60
2022-09-05T07:07:35.386Z,24.60
2022-09-05T07:10:34.672Z,24.70
2022-09-05T07:13:01.791Z,24.70
2022-09-05T07:15:39.639Z,24.80
2022-09-05T07:18:18.677Z,24.80
2022-09-05T07:21:16.946Z,24.80
2022-09-05T07:24:05.794Z,24.80
2022-09-05T07:26:53.751Z,24.90
2022-09-05T07:29:29.707Z,24.90
2022-09-05T07:32:01.944Z,24.90
2022-09-05T07:34:33.233Z,25.00
2022-09-05T07:37:14.916Z,25.10
2022-09-05T07:39:49.464Z,25.10
2022-09-05T07:42:24.749Z,25.20
2022-09-05T07:44:56.669Z,25.20
2022-09-05T07:47:29.095Z,25.30
2022-09-05T07:53:49.779Z,25.30
2022-09-05T07:56:53.145Z,25.40
2022-09-05T07:56:59.016Z,25.50
2022-09-05T07:58:50.461Z,25.60
2022-09-05T08:01:21.218Z,25.60
2022-09-05T08:03:56.303Z,25.70
2022-09-05T08:07:45.621Z,25.80
2022-09-05T08:10:06.926Z,25.80
2022-09-05T08:12:16.025Z,25.90
2022-09-05T08:14:49.796Z,26.00
2022-09-05T08:17:21.051Z,26.10
2022-09-05T08:20:13.816Z,26.10
2022-09-05T08:22:52.893Z,26.20
2022-09-05T08:25:25.585Z,26.20
2022-09-05T08:28:06.311Z,26.30
2022-09-05T08:30:44.473Z,26.30
2022-09-05T08:33:15.903Z,26.40
2022-09-05T08:35:48.785Z,26.40
2022-09-05T08:38:18.913Z,26.50
2022-09-05T08:40:53.921Z,26.50
2022-09-05T08:45:46.343Z,26.50
2022-09-05T08:46:46.633Z,26.50
2022-09-05T08:49:44.085Z,26.50
2022-09-05T08:52:21.167Z,26.50
2022-09-05T08:55:07.130Z,26.50
2022-09-05T08:57:59.051Z,26.60
2022-09-05T09:00:33.604Z,26.70
2022-09-05T09:03:14.131Z,26.70
2022-09-05T09:06:17.027Z,26.80
2022-09-05T09:09:09.538Z,26.80
2022-09-05T09:11:42.505Z,26.90
2022-09-05T09:14:37.916Z,27.00
2022-09-05T09:17:26.182Z,27.10
2022-09-05T09:20:09.760Z,27.10
2022-09-05T09:22:43.268Z,27.20
2022-09-05T09:25:18.451Z,27.30
2022-09-05T09:28:48.073Z,27.40
2022-09-05T09:31:12.001Z,27.50
2022-09-05T09:33:47.050Z,27.60
2022-09-05T09:36:41.516Z,27.70
2022-09-05T09:39:38.230Z,27.90
2022-09-05T09:42:32.444Z,28.00
2022-09-05T09:45:41.458Z,28.20
2022-09-05T09:48:51.644Z,28.50
2022-09-05T09:51:34.107Z,28.70
2022-09-05T09:54:31.045Z,28.90
2022-09-05T09:57:36.112Z,29.10
2022-09-05T10:00:11.843Z,29.30
2022-09-05T10:08:59.772Z,29.60
2022-09-05T10:10:43.854Z,30.10
2022-09-05T10:10:47.954Z,29.80
2022-09-05T10:13:18.167Z,30.40
2022-09-05T10:16:18.335Z,30.70
2022-09-05T10:19:03.596Z,30.90
2022-09-05T10:22:34.048Z,31.20
2022-09-05T10:25:28.850Z,31.30
2022-09-05T10:28:06.016Z,31.70
2022-09-05T10:32:23.241Z,31.90
2022-09-05T10:35:17.783Z,32.20
2022-09-05T10:36:29.880Z,32.40
2022-09-05T10:39:13.846Z,32.60
2022-09-05T10:41:48.935Z,32.90
2022-09-05T10:44:26.496Z,33.30
2022-09-05T10:47:06.270Z,33.50
2022-09-05T10:49:39.700Z,33.70
2022-09-05T10:52:19.350Z,33.90
2022-09-05T10:55:14.942Z,34.20
2022-09-05T10:57:57.351Z,34.40
2022-09-05T11:02:22.649Z,34.50
2022-09-05T11:03:31.364Z,34.70
2022-09-05T11:06:09.184Z,34.80
2022-09-05T11:08:43.781Z,34.90
2022-09-05T11:11:28.686Z,35.10
2022-09-05T11:14:26.708Z,35.30
2022-09-05T11:17:07.041Z,35.50
2022-09-05T11:19:42.844Z,35.60
2022-09-05T11:22:22.962Z,35.70
2022-09-05T11:24:56.984Z,35.80
2022-09-05T11:27:33.333Z,36.10
2022-09-05T11:30:06.374Z,36.50
2022-09-05T11:39:24.026Z,36.80
2022-09-05T11:40:04.702Z,37.00
2022-09-05T11:42:01.155Z,37.70
2022-09-05T11:44:42.303Z,38.10
2022-09-05T11:47:48.982Z,38.30
2022-09-05T11:50:54.347Z,38.60
2022-09-05T11:53:45.396Z,38.60
2022-09-05T11:57:32.175Z,38.60
2022-09-05T12:00:31.465Z,38.70
2022-09-05T12:03:59.331Z,38.60
2022-09-05T12:07:29.825Z,38.70
2022-09-05T12:10:45.743Z,39.10
2022-09-05T12:13:26.346Z,39.20
2022-09-05T12:16:08.076Z,39.40
2022-09-05T12:21:27.327Z,39.60
2022-09-05T12:25:16.623Z,39.50
2022-09-05T12:27:38.929Z,39.30
2022-09-05T12:29:59.768Z,39.20
2022-09-05T12:33:58.354Z,39.20
2022-09-05T12:36:13.159Z,39.10
2022-09-05T12:40:43.638Z,38.70
2022-09-05T12:41:46.048Z,38.00
2022-09-05T12:44:40.228Z,37.30
2022-09-05T12:47:16.947Z,36.70
2022-09-05T12:50:02.445Z,36.20
2022-09-05T12:52:43.288Z,35.90
2022-09-05T12:55:22.393Z,35.40
2022-09-05T13:02:26.395Z,35.00
2022-09-05T13:03:15.400Z,34.50
2022-09-05T13:04:13.284Z,34.10
2022-09-05T13:06:39.153Z,33.80
2022-09-05T13:09:11.720Z,33.50
2022-09-05T13:14:46.842Z,33.30
2022-09-05T13:15:12.471Z,33.20
2022-09-05T13:17:52.006Z,33.00
2022-09-05T13:20:34.378Z,32.80
